Portada
METAR-TAF:

METAR-TAF

Aeroports :

Libreville, Gabon

latitud: 00-27N, longitud: 009-25E, altitud: 12 m

Observació

L'informe es va fer fa 39 minuts, a les 22:00 UTC
Vent 8 kt del Oest/Sud-Oest
Temperatura 26°C
Humitat 89%
Pressió 1010 hPa
Visibilitat: 8000 m
Escasses núvols a una alçada de 1200 ft
Escasses núvols a una alçada de 2000 ft, Cumulonimbus.
Núvols disperses a una alçada de 3300 ft
tempesta, pluja

METAR: FOOL 062200Z 24008KT 8000 -TSRA FEW012 FEW020CB SCT033 26/24 Q1010 TEMPO 3000 TSRA

Hora: 23:39 (22:39 UTC)

Pronòstic

L'informe es va fer fa 5 hores i 37 minuts, a les 17:02 UTC
Pronòstic vàlid del 06 a les 18 UTC al 07 a les 24 UTC
Vent 8 kt del Oest/Sud-Oest
Visibilitat 10 km o més
Núvols disperses a una alçada de 1000 ft
Escasses núvols a una alçada de 2000 ft, Cumulonimbus.
Temporalment
l' 06 a les 21 UTC al 07 a les 02 UTC
Visibilitat: 4000 m
tempesta, pluja

TAF: FOOL 061702Z 0618/0724 24008KT 9999 SCT010 FEW020CB TEMPO 0621/0702 4000 TSRA

Observacions i pronòstics meteorològics de més de 4000 aeroports (METAR i TAF).

Les estacions disponibles són els punts grocs i vermells al mapa.

Posi el ratolí al punt desitjat per veure el nom de l'estació.

Feu clic per veure les observacions i els pronòstics meteorològics.

Per canviar el mapa: feu clic els botons verds amb una creu de color negre per apropar; al botó verd amb un guió per allunyar la imatge; o en les fletxes verdes per a mapes adjacents.


METAR-TAF: